Time;durP1;ratioP1;P1;durP2;ratioP2;P2;SDS_P1;SDS_P2;PMS_P1;PMS_P2;Temp;Humidity;BMP_temperature;BMP_pressure;BME280_temperature;BME280_humidity;BME280_pressure;Samples;Min_cycle;Max_cycle;Signal;HPM_P1;HPM_P2
2021/11/30 00:00:52;;;;;;;;;0.50;0.50;;;;;3.98;67.62;101577.19;5063196;28;45336;-89
2021/11/30 00:03:18;;;;;;;;;0.75;0.75;;;;;3.99;66.64;101571.25;5063506;28;45300;-90
2021/11/30 00:05:45;;;;;;;;;0.00;0.00;;;;;4.06;67.79;101567.25;5062058;28;47330;-91
2021/11/30 00:08:11;;;;;;;;;0.25;0.25;;;;;4.19;67.70;101584.19;5064740;28;45434;-90
2021/11/30 00:10:44;;;;;;;;;1.25;0.00;;;;;4.29;66.98;101590.69;5067833;28;45337;-90
2021/11/30 00:13:11;;;;;;;;;0.25;0.25;;;;;4.25;67.38;101579.34;5051656;28;45343;-90
2021/11/30 00:15:37;;;;;;;;;0.00;0.00;;;;;4.31;67.87;101591.63;5088228;28;45232;-89
2021/11/30 00:18:02;;;;;;;;;0.00;0.00;;;;;4.08;68.00;101551.88;5084227;28;44790;-90
2021/11/30 00:20:28;;;;;;;;;0.00;0.00;;;;;4.03;67.50;101557.69;5067483;28;45382;-90
2021/11/30 00:22:53;;;;;;;;;0.00;0.00;;;;;4.24;67.14;101587.91;5066022;28;45505;-89
2021/11/30 00:25:19;;;;;;;;;0.00;0.00;;;;;4.17;67.87;101573.81;5064735;28;47041;-90
2021/11/30 00:27:44;;;;;;;;;0.00;0.00;;;;;3.90;67.92;101525.31;5063294;28;45377;-90
2021/11/30 00:30:10;;;;;;;;;1.00;1.00;;;;;3.91;67.58;101513.28;5047594;28;45337;-89
2021/11/30 00:32:35;;;;;;;;;0.00;0.00;;;;;4.24;67.63;101566.38;5075813;28;45262;-89
2021/11/30 00:35:00;;;;;;;;;0.00;0.00;;;;;4.01;68.25;101533.53;5081166;28;47453;-89
2021/11/30 00:37:26;;;;;;;;;1.00;0.00;;;;;4.30;68.04;101583.03;5079691;27;45366;-89
2021/11/30 00:39:51;;;;;;;;;1.00;1.00;;;;;3.79;68.24;101486.13;5081253;28;45540;-89
2021/11/30 00:42:20;;;;;;;;;0.00;0.00;;;;;4.25;68.76;101547.50;5064397;28;45379;-88
2021/11/30 00:44:45;;;;;;;;;0.00;0.00;;;;;3.54;68.42;101423.13;5081551;28;47659;-88
2021/11/30 00:47:18;;;;;;;;;1.00;0.00;;;;;4.17;68.22;101524.84;5063905;28;45335;-88
2021/11/30 00:49:44;;;;;;;;;0.00;0.00;;;;;4.15;68.44;101523.00;5047979;28;45333;-89
2021/11/30 00:52:10;;;;;;;;;0.50;0.50;;;;;4.17;68.83;101519.69;5064222;28;45434;-89
2021/11/30 00:54:35;;;;;;;;;0.00;0.00;;;;;4.51;67.97;101561.66;5065384;28;46384;-88
2021/11/30 00:57:01;;;;;;;;;0.00;0.00;;;;;4.30;67.90;101535.75;5063365;28;45351;-89
2021/11/30 00:59:29;;;;;;;;;2.00;0.00;;;;;4.40;67.86;101540.53;5047632;28;45867;-89
2021/11/30 01:01:57;;;;;;;;;0.00;0.00;;;;;4.44;67.77;101538.94;5062751;28;45404;-89
2021/11/30 01:04:23;;;;;;;;;0.00;0.00;;;;;4.52;68.47;101542.78;5062809;28;47873;-89
2021/11/30 01:06:48;;;;;;;;;0.75;0.75;;;;;4.50;68.71;101533.22;5063552;28;45375;-90
2021/11/30 01:09:13;;;;;;;;;0.00;0.00;;;;;4.48;68.26;101520.25;5081071;28;45247;-90
2021/11/30 01:11:39;;;;;;;;;1.00;1.00;;;;;4.55;68.44;101526.56;5062532;28;45328;-89
2021/11/30 01:14:06;;;;;;;;;0.00;0.00;;;;;4.73;68.27;101547.19;5064943;28;45871;-90
2021/11/30 01:16:33;;;;;;;;;1.00;1.00;;;;;4.61;68.48;101518.22;5062244;28;45383;-90
2021/11/30 01:18:59;;;;;;;;;0.00;0.00;;;;;4.66;68.23;101516.75;5082029;28;45336;-90
2021/11/30 01:21:25;;;;;;;;;0.00;0.00;;;;;4.75;68.23;101537.78;5064367;28;45133;-89
2021/11/30 01:23:50;;;;;;;;;0.00;0.00;;;;;4.59;68.11;101504.41;5077148;28;45589;-89
2021/11/30 01:26:15;;;;;;;;;0.00;0.00;;;;;4.36;68.14;101466.44;5080723;28;45244;-88
2021/11/30 01:28:41;;;;;;;;;0.00;0.00;;;;;4.82;68.65;101538.97;5081300;28;45372;-90
2021/11/30 01:31:06;;;;;;;;;0.00;0.00;;;;;4.57;68.64;101505.19;5065058;28;45232;-89
2021/11/30 01:33:35;;;;;;;;;0.00;0.00;;;;;4.71;69.01;101524.72;5084870;28;48479;-91
2021/11/30 01:36:00;;;;;;;;;0.75;0.75;;;;;4.71;68.00;101514.41;5080217;28;45303;-91
2021/11/30 01:38:27;;;;;;;;;0.00;0.00;;;;;4.67;68.15;101515.94;5065951;28;45846;-91
2021/11/30 01:40:52;;;;;;;;;0.00;0.00;;;;;4.44;68.81;101474.50;5064042;28;45303;-90
2021/11/30 01:43:22;;;;;;;;;0.00;0.00;;;;;4.74;68.40;101517.97;5052197;28;47075;-90
2021/11/30 01:46:09;;;;;;;;;0.00;0.00;;;;;4.71;68.79;101507.53;5072828;28;45254;-90
2021/11/30 01:51:20;;;;;;;;;0.25;0.25;;;;;4.81;68.33;101526.91;5083220;28;44801;-90
2021/11/30 01:53:45;;;;;;;;;0.00;0.00;;;;;4.59;68.40;101486.34;5083158;28;46872;-90
2021/11/30 01:56:11;;;;;;;;;0.00;0.00;;;;;4.71;68.24;101497.19;5069103;28;45364;-90
2021/11/30 01:58:37;;;;;;;;;0.00;0.00;;;;;4.63;68.72;101486.53;5069098;28;45313;-90
2021/11/30 02:01:02;;;;;;;;;0.00;0.00;;;;;4.59;69.04;101469.16;5064119;28;45375;-90
2021/11/30 02:03:28;;;;;;;;;3.00;1.00;;;;;4.88;68.52;101516.03;5081620;28;47617;-90
2021/11/30 02:05:54;;;;;;;;;0.00;0.00;;;;;4.67;68.82;101490.16;5078020;28;45425;-90
2021/11/30 02:08:19;;;;;;;;;0.00;0.00;;;;;4.59;69.34;101468.28;5066649;28;45328;-90
2021/11/30 02:10:45;;;;;;;;;0.00;0.00;;;;;4.44;68.78;101431.56;5064437;28;45471;-91
2021/11/30 02:13:10;;;;;;;;;1.00;0.00;;;;;4.78;68.48;101480.31;5069329;28;45570;-90
2021/11/30 02:15:42;;;;;;;;;0.00;0.00;;;;;4.77;68.87;101497.47;5048417;28;45263;-90
2021/11/30 02:18:12;;;;;;;;;0.50;0.50;;;;;4.74;69.16;101492.19;5053425;28;45506;-90
2021/11/30 02:20:41;;;;;;;;;0.00;0.00;;;;;4.60;68.83;101455.47;5047985;28;45438;-90
2021/11/30 02:23:09;;;;;;;;;0.00;0.00;;;;;4.13;69.01;101365.72;5068475;28;47123;-90
2021/11/30 02:25:35;;;;;;;;;0.50;0.50;;;;;4.46;68.49;101420.41;5066405;28;45359;-89
2021/11/30 02:28:00;;;;;;;;;1.25;0.00;;;;;4.53;68.69;101436.25;5068790;28;45499;-89
2021/11/30 02:30:25;;;;;;;;;0.50;0.50;;;;;4.04;68.73;101371.34;5064761;28;45307;-90
2021/11/30 02:32:51;;;;;;;;;0.00;0.00;;;;;4.33;68.94;101409.56;5081896;28;47209;-89
2021/11/30 02:35:16;;;;;;;;;0.00;0.00;;;;;4.27;68.88;101397.28;5085833;27;45174;-89
2021/11/30 02:37:48;;;;;;;;;0.00;0.00;;;;;4.08;68.77;101368.91;5074144;28;45220;-89
2021/11/30 02:40:15;;;;;;;;;0.00;0.00;;;;;4.21;68.91;101378.06;5088093;28;44787;-90
2021/11/30 02:42:41;;;;;;;;;0.00;0.00;;;;;3.66;68.87;101281.22;5051763;28;47114;-90
2021/11/30 02:45:07;;;;;;;;;1.75;0.00;;;;;4.74;68.81;101468.06;5063904;28;45382;-90
2021/11/30 02:47:33;;;;;;;;;0.25;0.25;;;;;4.87;68.41;101477.25;5066021;28;45280;-90
2021/11/30 02:49:58;;;;;;;;;1.00;0.00;;;;;4.88;69.18;101479.91;5063404;28;45347;-90
2021/11/30 02:52:26;;;;;;;;;0.00;0.00;;;;;4.28;68.68;101362.97;5063288;28;46967;-90
2021/11/30 02:54:53;;;;;;;;;0.25;0.00;;;;;4.99;68.96;101482.94;5064862;28;45295;-90
2021/11/30 02:57:20;;;;;;;;;1.00;0.00;;;;;4.62;68.89;101409.13;5068025;28;45371;-89
2021/11/30 02:59:49;;;;;;;;;0.00;0.00;;;;;4.40;68.62;101365.19;5067056;28;45213;-89
2021/11/30 03:02:20;;;;;;;;;0.00;0.00;;;;;5.03;68.68;101469.34;5083008;28;47192;-90
2021/11/30 03:04:48;;;;;;;;;0.00;0.00;;;;;4.09;68.39;101321.72;5076432;28;45188;-89
2021/11/30 03:07:18;;;;;;;;;0.00;0.00;;;;;4.47;68.88;101378.38;5075222;28;44780;-89
2021/11/30 03:09:44;;;;;;;;;0.00;0.00;;;;;4.62;68.72;101388.50;5082803;28;44842;-89
2021/11/30 03:12:10;;;;;;;;;0.00;0.00;;;;;4.49;68.38;101369.88;5079643;28;48186;-90
2021/11/30 03:14:36;;;;;;;;;0.00;0.00;;;;;4.23;68.60;101322.34;5079254;28;45232;-90
2021/11/30 03:17:02;;;;;;;;;0.00;0.00;;;;;4.54;68.54;101378.69;5082161;28;45351;-89
2021/11/30 03:19:29;;;;;;;;;0.00;0.00;;;;;3.98;68.52;101280.88;5095856;28;44930;-89
2021/11/30 03:21:56;;;;;;;;;0.75;0.75;;;;;4.27;68.49;101344.84;5079618;28;46705;-89
2021/11/30 03:24:22;;;;;;;;;0.00;0.00;;;;;4.20;68.83;101324.78;5077303;28;44782;-89
2021/11/30 03:26:48;;;;;;;;;0.50;0.50;;;;;4.51;68.23;101376.00;5074809;28;45350;-89
2021/11/30 03:29:13;;;;;;;;;0.00;0.00;;;;;5.17;68.13;101488.03;5056743;28;44900;-89
2021/11/30 03:34:08;;;;;;;;;0.00;0.00;;;;;5.18;68.69;101494.94;5082389;28;45244;-89
2021/11/30 03:36:35;;;;;;;;;0.00;0.00;;;;;4.33;68.62;101349.38;5075545;28;45366;-89
2021/11/30 03:39:06;;;;;;;;;0.00;0.00;;;;;4.40;68.42;101354.88;5075889;28;45494;-89
2021/11/30 03:41:33;;;;;;;;;0.00;0.00;;;;;4.75;68.55;101410.53;5078143;28;45362;-89
2021/11/30 03:44:03;;;;;;;;;0.00;0.00;;;;;4.72;68.71;101408.72;5076820;28;45363;-89
2021/11/30 03:46:31;;;;;;;;;0.00;0.00;;;;;4.65;68.85;101393.75;5075127;28;45308;-89
2021/11/30 03:48:57;;;;;;;;;0.50;0.00;;;;;5.08;68.93;101456.66;5073342;28;45405;-89
2021/11/30 03:51:23;;;;;;;;;3.00;0.00;;;;;4.42;68.57;101370.44;5078710;28;48257;-89
2021/11/30 03:53:48;;;;;;;;;0.00;0.00;;;;;4.82;69.17;101439.25;5077673;28;45248;-89
2021/11/30 03:56:14;;;;;;;;;2.00;0.00;;;;;4.58;69.61;101397.78;5080274;28;45150;-89
2021/11/30 03:58:40;;;;;;;;;0.50;0.50;;;;;4.75;69.65;101433.75;5075422;28;45528;-89
2021/11/30 04:01:06;;;;;;;;;0.00;0.00;;;;;4.46;70.67;101395.53;5074866;28;46130;-87
2021/11/30 04:03:34;;;;;;;;;0.00;0.00;;;;;5.10;70.47;101521.25;5075629;28;45450;-89
2021/11/30 04:06:03;;;;;;;;;0.00;0.00;;;;;5.06;70.99;101504.75;5074826;28;45464;-89
2021/11/30 04:08:29;;;;;;;;;0.00;0.00;;;;;5.04;71.17;101508.97;5078431;28;45285;-89
2021/11/30 04:10:55;;;;;;;;;0.25;0.00;;;;;4.43;71.67;101392.81;5077657;28;46445;-89
2021/11/30 04:13:20;;;;;;;;;2.75;0.00;;;;;4.44;71.56;101389.41;5076642;28;45313;-89
2021/11/30 04:15:46;;;;;;;;;0.00;0.00;;;;;4.40;71.32;101366.88;5089865;28;44918;-90
2021/11/30 04:18:11;;;;;;;;;0.50;0.50;;;;;4.73;71.92;101420.78;5076596;28;45579;-90
2021/11/30 04:20:37;;;;;;;;;1.00;1.00;;;;;5.13;71.74;101482.66;5080534;28;45552;-90
2021/11/30 04:23:05;;;;;;;;;1.00;0.00;;;;;4.60;71.61;101397.84;5078064;28;44686;-90
2021/11/30 04:25:33;;;;;;;;;0.00;0.00;;;;;4.30;71.79;101358.78;5077291;28;45410;-90
2021/11/30 04:27:59;;;;;;;;;0.00;0.00;;;;;4.75;71.83;101416.56;5078588;28;45402;-90
2021/11/30 04:30:25;;;;;;;;;0.00;0.00;;;;;4.92;71.89;101439.63;5076779;28;47137;-90
2021/11/30 04:32:52;;;;;;;;;0.00;0.00;;;;;3.97;72.42;101285.97;5078703;28;45448;-90
2021/11/30 04:35:18;;;;;;;;;1.25;0.00;;;;;4.43;72.20;101360.19;5077139;28;44737;-90
2021/11/30 04:37:44;;;;;;;;;0.00;0.00;;;;;4.68;72.19;101412.84;5061123;28;45537;-90
2021/11/30 04:40:12;;;;;;;;;1.75;0.25;;;;;3.97;72.77;101296.28;5076587;28;47015;-89
2021/11/30 04:42:42;;;;;;;;;0.00;0.00;;;;;4.33;73.03;101376.06;5077201;28;46202;-90
2021/11/30 04:45:11;;;;;;;;;1.00;1.00;;;;;4.32;73.09;101356.25;5060113;28;44727;-88
2021/11/30 04:47:39;;;;;;;;;0.50;0.50;;;;;5.04;73.06;101485.72;5059505;28;45225;-89
2021/11/30 04:50:11;;;;;;;;;0.00;0.00;;;;;4.48;73.45;101393.91;5058299;28;45729;-88
2021/11/30 04:52:39;;;;;;;;;0.00;0.00;;;;;4.96;72.90;101492.25;5065298;28;44674;-89
2021/11/30 04:55:05;;;;;;;;;0.00;0.00;;;;;4.95;72.93;101475.88;5086509;28;44745;-89
2021/11/30 04:57:30;;;;;;;;;0.00;0.00;;;;;3.96;72.51;101299.66;5087218;28;45565;-89
2021/11/30 04:59:56;;;;;;;;;0.00;0.00;;;;;4.61;72.98;101428.84;5096471;27;47020;-89
2021/11/30 05:02:22;;;;;;;;;0.50;0.50;;;;;3.92;73.31;101311.56;5076946;28;45979;-88
2021/11/30 05:04:48;;;;;;;;;0.00;0.00;;;;;4.46;73.21;101392.94;5089324;28;45426;-90
2021/11/30 05:07:17;;;;;;;;;0.00;0.00;;;;;4.97;73.94;101489.75;5075547;28;45469;-89
2021/11/30 05:09:43;;;;;;;;;0.00;0.00;;;;;4.94;73.76;101472.41;5065259;28;45370;-89
2021/11/30 05:12:10;;;;;;;;;0.00;0.00;;;;;4.71;74.43;101434.44;5063665;28;45761;-88
2021/11/30 05:14:35;;;;;;;;;0.00;0.00;;;;;4.67;74.59;101448.88;5039928;28;45611;-90
2021/11/30 05:17:01;;;;;;;;;2.00;0.75;;;;;4.38;73.93;101384.00;5065643;28;45636;-90
2021/11/30 05:19:26;;;;;;;;;0.00;0.00;;;;;4.81;74.94;101458.09;5065397;28;46436;-89
2021/11/30 05:21:52;;;;;;;;;0.00;0.00;;;;;4.46;74.89;101377.47;5080832;28;45915;-89
2021/11/30 05:24:19;;;;;;;;;0.00;0.00;;;;;4.51;75.19;101373.44;5061982;28;45300;-89
2021/11/30 05:26:45;;;;;;;;;0.00;0.00;;;;;4.77;74.74;101408.88;5058022;28;45843;-90
2021/11/30 05:29:10;;;;;;;;;0.00;0.00;;;;;4.91;74.52;101431.03;5078391;28;47516;-89
2021/11/30 05:31:36;;;;;;;;;0.00;0.00;;;;;4.54;74.78;101354.63;5063133;28;45204;-90
2021/11/30 05:34:01;;;;;;;;;1.00;0.00;;;;;4.85;74.60;101406.63;5048188;28;45228;-90
2021/11/30 05:36:27;;;;;;;;;0.00;0.00;;;;;4.99;74.63;101410.69;5068125;28;44969;-90
2021/11/30 05:38:53;;;;;;;;;0.00;0.00;;;;;5.14;74.59;101438.84;5055769;28;47111;-91
2021/11/30 05:41:18;;;;;;;;;1.00;0.00;;;;;4.99;74.95;101415.84;5084756;28;45365;-90
2021/11/30 05:43:44;;;;;;;;;0.00;0.00;;;;;5.24;74.91;101445.28;5061493;28;44737;-91
2021/11/30 05:46:09;;;;;;;;;0.00;0.00;;;;;5.01;74.53;101405.59;5083238;28;44793;-89
2021/11/30 05:48:35;;;;;;;;;0.00;0.00;;;;;5.19;74.79;101431.31;5054860;28;47297;-91
2021/11/30 05:51:02;;;;;;;;;0.00;0.00;;;;;5.22;74.46;101428.84;5060086;28;45740;-90
2021/11/30 05:53:27;;;;;;;;;0.00;0.00;;;;;5.22;74.35;101413.38;5050075;28;45381;-91
2021/11/30 05:55:58;;;;;;;;;1.00;0.00;;;;;5.36;74.54;101436.28;5048944;28;45331;-90
2021/11/30 05:58:25;;;;;;;;;1.25;0.25;;;;;5.03;74.85;101366.13;5067578;28;47079;-90
2021/11/30 06:00:51;;;;;;;;;1.50;0.00;;;;;5.46;74.85;101435.84;5083146;28;45614;-83
2021/11/30 06:03:33;;;;;;;;;0.00;0.00;;;;;5.46;74.59;101438.44;5061924;28;45331;-81
2021/11/30 06:05:58;;;;;;;;;0.00;0.00;;;;;5.44;75.04;101424.56;5061036;28;45333;-81
2021/11/30 06:08:24;;;;;;;;;0.25;0.00;;;;;5.50;74.85;101429.09;5052474;28;46200;-81
2021/11/30 06:10:50;;;;;;;;;0.00;0.00;;;;;5.44;74.58;101427.16;5058622;28;45816;-81
2021/11/30 06:13:15;;;;;;;;;0.00;0.00;;;;;5.58;74.26;101441.50;5061491;28;45469;-82
2021/11/30 06:15:41;;;;;;;;;0.00;0.00;;;;;5.60;74.63;101438.97;5061349;28;45559;-82
2021/11/30 06:18:06;;;;;;;;;0.25;0.00;;;;;5.52;74.57;101422.31;5057869;28;45462;-82
2021/11/30 06:20:34;;;;;;;;;0.50;0.50;;;;;5.57;74.55;101442.34;5059918;28;45807;-81
2021/11/30 06:23:00;;;;;;;;;0.00;0.00;;;;;5.55;74.43;101438.78;5055208;28;45501;-82
2021/11/30 06:25:26;;;;;;;;;0.50;0.50;;;;;5.42;74.56;101409.00;5043248;28;45451;-82
2021/11/30 06:27:51;;;;;;;;;0.75;0.75;;;;;5.70;74.44;101442.84;5060634;28;45468;-80
2021/11/30 06:30:17;;;;;;;;;0.00;0.00;;;;;5.66;73.94;101428.91;5060752;28;45374;-81
2021/11/30 06:32:42;;;;;;;;;0.25;0.25;;;;;5.72;74.26;101438.59;5055829;28;45459;-81
2021/11/30 06:35:08;;;;;;;;;0.00;0.00;;;;;5.76;74.41;101455.13;5061378;28;45450;-81
2021/11/30 06:37:33;;;;;;;;;0.50;0.50;;;;;5.64;74.16;101430.53;5062246;28;46026;-79
2021/11/30 06:39:59;;;;;;;;;0.00;0.00;;;;;5.74;74.25;101447.31;5047522;28;45285;-79
2021/11/30 06:42:25;;;;;;;;;0.00;0.00;;;;;5.72;74.75;101441.19;5057513;28;45324;-79
2021/11/30 06:44:50;;;;;;;;;1.00;0.00;;;;;5.49;74.27;101386.03;5059420;28;45362;-80
2021/11/30 06:47:16;;;;;;;;;2.00;0.00;;;;;5.58;74.36;101402.75;5067914;28;46359;-79
2021/11/30 06:49:42;;;;;;;;;0.00;0.00;;;;;5.64;74.12;101396.09;5077830;28;45425;-79
2021/11/30 06:52:08;;;;;;;;;0.00;0.00;;;;;5.79;74.15;101426.81;5063173;28;45359;-78
2021/11/30 06:54:33;;;;;;;;;4.00;0.00;;;;;5.69;74.52;101402.31;5065734;28;45405;-80
2021/11/30 06:56:59;;;;;;;;;0.25;0.25;;;;;5.67;74.35;101411.72;5062610;28;46168;-81
2021/11/30 06:59:27;;;;;;;;;0.00;0.00;;;;;5.71;74.43;101431.69;5062020;28;45517;-79
2021/11/30 07:01:53;;;;;;;;;1.00;0.00;;;;;5.39;74.46;101370.16;5061171;28;45586;-78
2021/11/30 07:13:12;;;;;;;;;1.00;0.00;;;;;5.57;74.19;101402.69;5063612;28;45424;-80
2021/11/30 07:15:38;;;;;;;;;0.00;0.00;;;;;5.53;74.74;101398.22;5064638;28;45340;-84
2021/11/30 07:18:03;;;;;;;;;0.00;0.00;;;;;5.70;74.35;101435.09;5074439;28;45260;-81
2021/11/30 07:20:28;;;;;;;;;0.00;0.00;;;;;5.67;73.98;101438.41;5059779;28;44806;-81
2021/11/30 07:22:56;;;;;;;;;0.50;0.50;;;;;5.78;74.02;101456.03;5062763;28;45424;-81
2021/11/30 07:25:23;;;;;;;;;0.00;0.00;;;;;5.80;74.55;101457.88;5063102;28;45525;-82
2021/11/30 07:27:48;;;;;;;;;1.00;0.00;;;;;5.69;74.42;101447.13;5062848;28;45539;-82
2021/11/30 07:30:14;;;;;;;;;0.00;0.00;;;;;5.79;74.64;101448.34;5061399;28;45612;-81
2021/11/30 07:32:39;;;;;;;;;0.00;0.00;;;;;5.32;74.63;101378.47;5064763;28;45441;-81
2021/11/30 07:35:06;;;;;;;;;1.00;0.00;;;;;5.63;74.39;101430.50;5062192;28;45434;-82
2021/11/30 07:37:32;;;;;;;;;0.00;0.00;;;;;5.70;74.52;101427.34;5043935;28;46723;-82
2021/11/30 07:39:58;;;;;;;;;1.00;1.00;;;;;5.66;74.39;101410.81;5078806;28;45378;-82
2021/11/30 07:42:24;;;;;;;;;1.00;1.00;;;;;5.43;74.44;101384.06;5078516;28;45326;-80
2021/11/30 07:44:50;;;;;;;;;0.00;0.00;;;;;5.86;74.69;101446.91;5064820;28;45524;-80
2021/11/30 07:47:16;;;;;;;;;0.00;0.00;;;;;5.90;75.20;101453.06;5061204;28;45350;-81
2021/11/30 07:49:42;;;;;;;;;0.00;0.00;;;;;5.94;74.80;101455.84;5061374;28;45573;-81
2021/11/30 07:52:07;;;;;;;;;0.00;0.00;;;;;5.28;75.30;101366.25;5062664;28;45352;-81
2021/11/30 07:54:33;;;;;;;;;0.00;0.00;;;;;5.83;75.27;101457.97;5065553;28;45461;-79
2021/11/30 07:56:58;;;;;;;;;1.00;0.00;;;;;5.58;75.59;101428.59;5047695;28;45720;-80
2021/11/30 07:59:24;;;;;;;;;0.00;0.00;;;;;5.73;75.68;101450.72;5062744;28;45656;-79
2021/11/30 08:01:49;;;;;;;;;0.25;0.25;;;;;5.70;75.63;101442.84;5070573;28;45672;-81
2021/11/30 08:04:15;;;;;;;;;0.00;0.00;;;;;5.86;75.31;101470.16;5060772;28;45585;-81
2021/11/30 08:06:41;;;;;;;;;0.00;0.00;;;;;5.89;75.21;101466.81;5063879;28;47893;-79
2021/11/30 08:09:09;;;;;;;;;0.00;0.00;;;;;5.55;75.25;101409.53;5062626;28;45361;-79
2021/11/30 08:11:35;;;;;;;;;1.25;1.00;;;;;5.27;75.13;101367.94;5073479;28;45635;-82
2021/11/30 08:14:00;;;;;;;;;0.00;0.00;;;;;5.91;75.54;101465.19;5060810;28;45318;-81
2021/11/30 08:16:26;;;;;;;;;0.00;0.00;;;;;5.76;75.13;101440.47;5061766;28;46282;-82
2021/11/30 08:18:52;;;;;;;;;1.00;1.00;;;;;5.70;75.07;101424.75;5063342;28;45401;-81
2021/11/30 08:21:17;;;;;;;;;0.50;0.00;;;;;6.00;74.88;101475.00;5060799;28;45506;-80
2021/11/30 08:23:43;;;;;;;;;0.00;0.00;;;;;6.00;74.90;101469.84;5044228;28;45426;-82
2021/11/30 08:26:12;;;;;;;;;0.00;0.00;;;;;5.99;74.59;101468.94;5061920;28;46057;-79
2021/11/30 08:28:43;;;;;;;;;2.00;0.25;;;;;5.75;75.44;101427.50;5061858;28;45426;-80
2021/11/30 08:31:08;;;;;;;;;0.00;0.00;;;;;5.93;75.10;101463.53;5061608;28;45411;-80
2021/11/30 08:33:34;;;;;;;;;0.00;0.00;;;;;5.94;75.10;101466.19;5074119;28;45502;-81
2021/11/30 08:35:59;;;;;;;;;1.00;1.00;;;;;6.03;74.99;101470.81;5043204;28;47341;-80
2021/11/30 08:38:25;;;;;;;;;0.00;0.00;;;;;6.00;75.02;101468.13;5060964;28;45509;-80
2021/11/30 08:40:50;;;;;;;;;0.00;0.00;;;;;5.93;75.41;101455.78;5061373;28;45498;-80
2021/11/30 08:43:16;;;;;;;;;0.25;0.25;;;;;6.08;74.92;101473.63;5061975;28;45578;-84
2021/11/30 08:45:42;;;;;;;;;0.00;0.00;;;;;6.02;74.75;101463.91;5065164;28;46040;-79
2021/11/30 08:48:08;;;;;;;;;0.00;0.00;;;;;5.89;74.76;101428.94;5060429;28;45617;-80
2021/11/30 08:50:33;;;;;;;;;1.75;0.00;;;;;6.15;74.75;101472.16;5043586;28;45492;-81
2021/11/30 08:53:00;;;;;;;;;0.00;0.00;;;;;6.08;74.53;101459.00;5074243;27;45597;-78
2021/11/30 08:55:25;;;;;;;;;0.00;0.00;;;;;5.97;74.32;101434.38;5061295;28;45900;-77
2021/11/30 08:57:50;;;;;;;;;1.00;0.00;;;;;6.16;74.53;101448.94;5060912;28;45340;-81
2021/11/30 09:00:27;;;;;;;;;0.00;0.00;;;;;6.24;74.63;101463.84;5063766;28;45449;-84
2021/11/30 09:02:53;;;;;;;;;0.00;0.00;;;;;6.26;74.46;101463.13;5061699;28;45414;-78
2021/11/30 09:05:21;;;;;;;;;1.50;1.50;;;;;6.15;74.58;101441.13;5062235;28;46044;-82
2021/11/30 09:07:47;;;;;;;;;0.25;0.25;;;;;6.27;74.74;101456.22;5061468;28;45549;-86
2021/11/30 09:10:13;;;;;;;;;0.00;0.00;;;;;6.11;74.94;101441.84;5064998;28;45462;-82
2021/11/30 09:12:38;;;;;;;;;0.00;0.00;;;;;6.19;74.64;101455.94;5060792;28;45343;-84
2021/11/30 09:15:05;;;;;;;;;0.00;0.00;;;;;6.25;74.60;101463.91;5059393;28;46970;-80
2021/11/30 09:17:31;;;;;;;;;0.00;0.00;;;;;6.12;74.68;101428.09;5061306;28;45654;-80
2021/11/30 09:19:56;;;;;;;;;1.00;1.00;;;;;6.09;74.82;101421.09;5060842;28;45387;-79
2021/11/30 09:22:22;;;;;;;;;0.00;0.00;;;;;6.37;74.68;101480.75;5059654;28;45544;-81
2021/11/30 09:24:47;;;;;;;;;1.00;0.00;;;;;6.38;74.87;101485.09;5075493;28;47558;-85
2021/11/30 09:27:12;;;;;;;;;1.00;0.00;;;;;6.19;74.78;101443.88;5060573;28;45426;-80
2021/11/30 09:29:38;;;;;;;;;0.00;0.00;;;;;6.36;74.62;101463.44;5061292;28;45494;-83
2021/11/30 09:32:04;;;;;;;;;1.75;0.00;;;;;6.26;74.43;101447.59;5067890;28;45420;-78
2021/11/30 09:34:29;;;;;;;;;0.00;0.00;;;;;6.29;74.49;101433.91;5061491;28;47418;-79
2021/11/30 09:36:55;;;;;;;;;1.00;1.00;;;;;6.45;74.39;101461.22;5061861;28;45379;-80
2021/11/30 09:39:22;;;;;;;;;0.00;0.00;;;;;6.46;74.48;101457.78;5063493;28;45490;-81
2021/11/30 09:41:51;;;;;;;;;1.00;0.25;;;;;6.42;74.86;101440.41;5060879;28;45379;-82
2021/11/30 09:44:16;;;;;;;;;1.00;0.25;;;;;6.23;75.02;101415.56;5060721;28;45404;-83
2021/11/30 09:46:43;;;;;;;;;0.00;0.00;;;;;6.54;74.95;101474.50;5043144;28;45443;-78
2021/11/30 09:49:08;;;;;;;;;4.25;1.00;;;;;6.52;74.97;101452.00;5061182;28;45548;-81
2021/11/30 09:51:35;;;;;;;;;2.25;1.00;;;;;6.50;74.67;101451.03;5059964;28;45417;-81
2021/11/30 09:54:01;;;;;;;;;0.00;0.00;;;;;6.36;74.97;101432.41;5060216;28;46042;-80
2021/11/30 09:56:26;;;;;;;;;1.00;1.00;;;;;6.64;75.14;101465.38;5059613;28;45880;-82
2021/11/30 09:58:52;;;;;;;;;1.00;1.00;;;;;6.68;75.04;101475.00;5061502;28;45259;-79
2021/11/30 10:01:18;;;;;;;;;0.00;0.00;;;;;6.70;75.05;101464.69;5059996;28;45272;-81
2021/11/30 10:03:44;;;;;;;;;1.75;1.75;;;;;6.44;75.14;101421.53;5059895;28;46031;-77
2021/11/30 10:06:11;;;;;;;;;0.00;0.00;;;;;6.81;75.02;101481.53;5059639;28;45374;-85
2021/11/30 10:08:43;;;;;;;;;1.00;1.00;;;;;6.70;75.04;101442.31;5059680;28;45551;-81
2021/11/30 10:11:26;;;;;;;;;0.00;0.00;;;;;6.85;74.94;101461.78;5062823;28;45276;-78
2021/11/30 10:14:26;;;;;;;;;0.25;0.25;;;;;6.84;74.47;101439.34;5063820;28;45724;-78
2021/11/30 10:17:11;;;;;;;;;0.00;0.00;;;;;7.03;74.79;101474.50;5064282;28;45497;-79
2021/11/30 10:19:38;;;;;;;;;2.00;0.50;;;;;6.87;74.48;101447.22;5064461;28;45491;-78
2021/11/30 10:22:03;;;;;;;;;0.00;0.00;;;;;6.99;74.47;101466.56;5083278;28;45406;-85
2021/11/30 10:24:29;;;;;;;;;0.00;0.00;;;;;6.72;74.62;101425.13;5094158;27;47455;-82
2021/11/30 10:26:56;;;;;;;;;3.00;1.75;;;;;6.98;74.67;101455.34;5063642;28;45466;-79
2021/11/30 10:29:21;;;;;;;;;0.00;0.00;;;;;6.96;74.56;101457.88;5062811;28;45344;-80
2021/11/30 10:31:50;;;;;;;;;1.25;1.25;;;;;6.98;74.41;101447.56;5069562;28;45781;-81
2021/11/30 10:34:23;;;;;;;;;2.00;0.75;;;;;6.92;74.50;101442.19;5063306;28;45410;-81
2021/11/30 10:36:52;;;;;;;;;0.00;0.00;;;;;7.07;74.39;101460.84;5063366;28;45602;-81
2021/11/30 10:39:25;;;;;;;;;3.25;1.00;;;;;7.01;74.31;101452.00;5071422;28;45500;-81
2021/11/30 10:41:53;;;;;;;;;0.00;0.00;;;;;6.51;74.35;101364.84;5050452;28;45442;-80
2021/11/30 10:44:30;;;;;;;;;0.00;0.00;;;;;6.71;74.54;101391.44;5061830;28;45489;-80
2021/11/30 10:47:12;;;;;;;;;1.50;0.00;;;;;7.15;74.73;101465.41;5062414;28;45481;-80
2021/11/30 10:49:52;;;;;;;;;0.00;0.00;;;;;6.96;74.87;101423.34;5063476;28;45431;-80
2021/11/30 10:52:28;;;;;;;;;0.00;0.00;;;;;7.09;75.05;101459.19;5062427;28;45609;-80
2021/11/30 10:55:08;;;;;;;;;2.00;0.00;;;;;7.17;74.58;101454.25;5061805;28;45471;-81
2021/11/30 10:57:33;;;;;;;;;0.00;0.00;;;;;7.06;74.54;101429.72;5058225;28;45291;-81
2021/11/30 11:00:27;;;;;;;;;0.00;0.00;;;;;7.18;74.89;101432.75;5063447;28;45529;-82
2021/11/30 11:03:04;;;;;;;;;0.00;0.00;;;;;7.25;74.74;101444.16;5058427;28;45375;-83
2021/11/30 11:05:34;;;;;;;;;0.00;0.00;;;;;7.31;75.20;101430.53;5063129;28;47382;-81
2021/11/30 11:08:10;;;;;;;;;4.00;0.00;;;;;7.41;74.57;101439.53;5063386;28;45503;-80
2021/11/30 11:10:36;;;;;;;;;0.00;0.00;;;;;7.42;74.16;101423.13;5063537;28;45457;-79
2021/11/30 11:13:25;;;;;;;;;0.00;0.00;;;;;7.49;74.66;101430.28;5080117;28;45450;-82
2021/11/30 11:15:56;;;;;;;;;0.00;0.00;;;;;7.22;74.68;101384.50;5060248;28;47468;-82
2021/11/30 11:18:28;;;;;;;;;1.00;1.00;;;;;7.47;74.28;101416.38;5061587;28;45374;-82
2021/11/30 11:21:17;;;;;;;;;0.00;0.00;;;;;7.52;74.90;101403.56;5062827;28;46176;-81
2021/11/30 11:23:46;;;;;;;;;0.75;0.00;;;;;7.29;74.90;101373.50;5063115;28;45421;-82
2021/11/30 11:26:18;;;;;;;;;0.00;0.00;;;;;7.54;74.77;101405.41;5047678;28;47425;-82
2021/11/30 11:28:44;;;;;;;;;0.25;0.00;;;;;7.53;74.59;101403.63;5067249;28;45464;-84
2021/11/30 11:31:10;;;;;;;;;0.00;0.00;;;;;7.57;74.77;101407.22;5059288;28;45471;-82
2021/11/30 11:33:35;;;;;;;;;0.00;0.00;;;;;7.59;74.84;101396.06;5060963;28;45284;-83
2021/11/30 11:36:03;;;;;;;;;0.00;0.00;;;;;7.62;75.13;101392.66;5059263;28;46252;-85
2021/11/30 11:38:30;;;;;;;;;0.00;0.00;;;;;7.62;74.23;101384.91;5059296;28;45368;-81
2021/11/30 11:40:56;;;;;;;;;0.00;0.00;;;;;7.77;74.43;101386.19;5067494;28;45443;-81
2021/11/30 11:43:25;;;;;;;;;0.00;0.00;;;;;7.69;74.86;101360.94;5063112;28;45394;-84
2021/11/30 11:45:52;;;;;;;;;0.00;0.00;;;;;7.82;74.09;101380.34;5061095;28;47416;-82
2021/11/30 11:48:18;;;;;;;;;0.00;0.00;;;;;7.71;74.50;101371.34;5065123;28;45306;-78